Time;durP1;ratioP1;P1;durP2;ratioP2;P2;SDS_P1;SDS_P2;PMS_P1;PMS_P2;Temp;Humidity;BMP_temperature;BMP_pressure;BME280_temperature;BME280_humidity;BME280_pressure;Samples;Min_cycle;Max_cycle;Signal;HPM_P1;HPM_P2
2022/08/27 00:05:00;;;;;;;12.02;6.32;;;20.30;99.90;;;;;;10524310;28;20123;-79
2022/08/27 00:10:03;;;;;;;9.43;6.93;;;20.30;99.90;;;;;;10507493;28;20071;-77
2022/08/27 00:15:06;;;;;;;9.50;6.28;;;20.30;99.90;;;;;;10504421;28;20486;-78
2022/08/27 00:20:12;;;;;;;9.93;6.47;;;20.30;99.90;;;;;;10533643;28;20102;-79
2022/08/27 00:25:15;;;;;;;10.20;6.43;;;20.30;99.90;;;;;;10514429;28;20373;-77
2022/08/27 00:30:20;;;;;;;9.98;6.40;;;20.40;99.90;;;;;;10538586;28;20044;-78
2022/08/27 00:35:23;;;;;;;10.52;6.68;;;20.40;99.90;;;;;;10535447;28;20048;-79
2022/08/27 00:40:27;;;;;;;10.98;6.70;;;20.40;99.90;;;;;;10526311;28;20490;-77
2022/08/27 00:45:32;;;;;;;10.27;6.45;;;20.40;99.90;;;;;;10539272;28;20105;-79
2022/08/27 00:50:42;;;;;;;11.88;7.20;;;20.40;99.90;;;;;;10539927;28;20051;-77
2022/08/27 00:55:49;;;;;;;11.15;6.47;;;20.30;99.90;;;;;;10524446;28;20052;-77
2022/08/27 01:00:51;;;;;;;10.10;7.55;;;20.30;99.90;;;;;;10513242;28;20051;-76
2022/08/27 01:06:00;;;;;;;13.57;8.32;;;20.30;99.90;;;;;;10517942;28;20045;-77
2022/08/27 01:11:03;;;;;;;9.77;6.90;;;20.40;99.90;;;;;;10512853;28;20048;-78
2022/08/27 01:16:07;;;;;;;10.13;7.13;;;20.40;99.90;;;;;;10523184;28;20131;-80
2022/08/27 01:21:17;;;;;;;11.63;7.60;;;20.40;99.90;;;;;;10528726;28;20040;-78
2022/08/27 01:26:23;;;;;;;10.10;7.38;;;20.40;99.90;;;;;;10505831;28;20409;-76
2022/08/27 01:31:28;;;;;;;11.90;8.30;;;20.40;99.90;;;;;;10512346;28;20076;-79
2022/08/27 01:36:31;;;;;;;17.63;9.20;;;20.40;99.90;;;;;;10500300;28;20177;-79
2022/08/27 01:41:34;;;;;;;11.68;9.25;;;20.40;99.90;;;;;;10513059;28;20064;-76
2022/08/27 01:46:37;;;;;;;15.75;10.80;;;20.40;99.90;;;;;;10500556;28;20055;-77
2022/08/27 01:51:39;;;;;;;16.50;10.35;;;20.40;99.90;;;;;;10501463;28;20048;-77
2022/08/27 01:56:42;;;;;;;14.38;9.95;;;20.50;99.90;;;;;;10499959;28;20506;-78
2022/08/27 02:01:44;;;;;;;16.58;9.32;;;20.50;99.90;;;;;;10513606;28;20048;-76
2022/08/27 02:06:46;;;;;;;13.63;9.60;;;20.50;99.90;;;;;;10518520;28;20052;-77
2022/08/27 02:11:51;;;;;;;14.75;10.10;;;20.60;99.90;;;;;;10528262;28;20051;-78
2022/08/27 02:16:53;;;;;;;13.23;9.00;;;20.50;99.90;;;;;;10517158;28;20297;-78
2022/08/27 02:21:59;;;;;;;14.40;8.73;;;20.60;99.90;;;;;;10498274;28;20045;-77
2022/08/27 02:27:02;;;;;;;15.05;8.95;;;20.60;99.90;;;;;;10515994;28;20044;-77
2022/08/27 02:32:04;;;;;;;12.68;8.82;;;20.40;99.90;;;;;;10539867;28;20040;-77
2022/08/27 02:37:06;;;;;;;12.93;8.73;;;20.40;99.90;;;;;;10513678;28;20049;-78
2022/08/27 02:42:10;;;;;;;12.05;8.00;;;20.30;99.90;;;;;;10512735;28;20067;-77
2022/08/27 02:47:13;;;;;;;11.88;8.60;;;20.30;99.90;;;;;;10533219;28;20052;-78
2022/08/27 02:52:15;;;;;;;12.30;7.93;;;20.40;99.90;;;;;;10509529;28;20048;-77
2022/08/27 02:57:19;;;;;;;14.70;8.50;;;20.50;99.90;;;;;;10534551;28;20390;-77
2022/08/27 03:02:21;;;;;;;12.90;9.35;;;20.50;99.90;;;;;;10533507;28;20048;-76
2022/08/27 03:07:23;;;;;;;12.20;9.40;;;20.30;99.90;;;;;;10545538;28;20059;-76
2022/08/27 03:12:27;;;;;;;14.60;8.32;;;20.30;99.90;;;;;;10511711;28;20044;-77
2022/08/27 03:22:57;;;;;;;17.55;9.88;;;20.10;99.90;;;;;;10487000;28;20583;-77
2022/08/27 03:28:01;;;;;;;13.02;9.73;;;20.00;99.90;;;;;;10509216;28;20044;-76
2022/08/27 03:33:03;;;;;;;17.00;10.82;;;20.10;99.90;;;;;;10510962;28;20048;-75
2022/08/27 03:38:05;;;;;;;15.05;11.57;;;20.10;99.90;;;;;;10509141;28;20055;-76
2022/08/27 03:43:09;;;;;;;16.63;11.82;;;20.00;99.90;;;;;;10538567;28;20059;-78
2022/08/27 03:48:13;;;;;;;16.33;11.73;;;19.90;99.90;;;;;;10513268;28;20067;-76
2022/08/27 03:53:19;;;;;;;15.25;11.05;;;19.90;99.90;;;;;;10503660;28;20542;-73
2022/08/27 03:58:22;;;;;;;16.05;11.40;;;19.90;99.90;;;;;;10514607;28;20509;-76
2022/08/27 04:03:24;;;;;;;14.93;11.27;;;19.90;99.90;;;;;;10531321;28;20048;-77
2022/08/27 04:08:27;;;;;;;17.05;11.80;;;19.80;99.90;;;;;;10529948;28;20044;-74
2022/08/27 04:13:31;;;;;;;19.88;12.55;;;19.80;99.90;;;;;;10531303;28;20055;-75
2022/08/27 04:18:33;;;;;;;19.45;13.95;;;19.80;99.90;;;;;;10538884;28;20054;-76
2022/08/27 04:23:35;;;;;;;19.52;14.80;;;19.80;99.90;;;;;;10532198;28;20049;-77
2022/08/27 04:28:39;;;;;;;24.92;17.73;;;19.80;99.90;;;;;;10504423;28;20509;-75
2022/08/27 04:33:41;;;;;;;24.17;17.73;;;19.80;99.90;;;;;;10501869;28;20045;-78
2022/08/27 04:38:43;;;;;;;26.08;19.38;;;19.80;99.90;;;;;;10511409;28;20060;-75
2022/08/27 04:43:47;;;;;;;25.75;19.00;;;19.90;99.90;;;;;;10506459;28;20036;-77
2022/08/27 04:48:50;;;;;;;26.50;18.33;;;19.90;99.90;;;;;;10504852;28;20494;-76
2022/08/27 04:53:52;;;;;;;24.13;17.75;;;19.90;99.90;;;;;;10501932;28;20102;-78
2022/08/27 04:58:56;;;;;;;21.95;16.98;;;20.00;99.90;;;;;;10528640;28;20864;-76
2022/08/27 05:03:59;;;;;;;26.05;18.10;;;20.10;99.90;;;;;;10530874;28;20047;-79
2022/08/27 05:09:01;;;;;;;25.17;17.60;;;20.10;99.90;;;;;;10508159;28;20530;-77
2022/08/27 05:14:07;;;;;;;23.63;17.63;;;20.10;99.90;;;;;;10500704;28;20040;-77
2022/08/27 05:19:13;;;;;;;19.35;15.75;;;20.10;99.90;;;;;;10511015;28;20045;-78
2022/08/27 05:24:17;;;;;;;21.23;16.85;;;20.20;99.90;;;;;;10527014;28;20056;-79
2022/08/27 05:29:21;;;;;;;20.92;15.80;;;20.20;99.90;;;;;;10518015;28;20059;-76
2022/08/27 05:34:23;;;;;;;20.95;15.63;;;20.30;99.90;;;;;;10527952;28;20048;-75
2022/08/27 05:39:25;;;;;;;22.13;15.75;;;20.30;99.90;;;;;;10498603;28;20057;-74
2022/08/27 05:44:28;;;;;;;21.40;16.63;;;20.30;99.90;;;;;;10506738;28;20052;-74
2022/08/27 05:49:31;;;;;;;21.50;17.30;;;20.40;99.90;;;;;;10503014;28;20055;-74
2022/08/27 05:54:33;;;;;;;25.40;19.75;;;20.40;99.90;;;;;;10537460;28;20075;-74
2022/08/27 06:04:56;;;;;;;24.70;18.52;;;20.50;99.90;;;;;;10502852;28;20040;-75
2022/08/27 06:09:58;;;;;;;21.40;17.00;;;20.60;99.90;;;;;;10501880;28;20052;-74
2022/08/27 06:15:03;;;;;;;22.08;17.77;;;20.60;99.90;;;;;;10498543;28;20045;-73
2022/08/27 06:20:07;;;;;;;20.83;16.00;;;20.70;99.90;;;;;;10487035;28;20047;-73
2022/08/27 06:25:09;;;;;;;20.40;16.75;;;20.80;99.90;;;;;;10484821;28;20101;-74
2022/08/27 06:30:13;;;;;;;22.02;17.42;;;20.80;99.90;;;;;;10509454;28;20047;-74
2022/08/27 06:35:16;;;;;;;21.17;16.73;;;20.80;99.90;;;;;;10537105;28;20459;-74
2022/08/27 06:40:18;;;;;;;21.50;17.70;;;20.80;99.90;;;;;;10513907;28;21052;-75
2022/08/27 06:45:21;;;;;;;24.70;19.35;;;20.70;99.90;;;;;;10519594;28;20044;-72
2022/08/27 06:50:23;;;;;;;28.67;21.70;;;20.60;99.90;;;;;;10497035;28;20056;-74
2022/08/27 06:55:25;;;;;;;37.00;28.73;;;20.60;99.90;;;;;;10483733;28;20044;-74
2022/08/27 07:00:29;;;;;;;36.45;26.60;;;20.60;99.90;;;;;;10521678;28;20044;-75
2022/08/27 07:05:32;;;;;;;39.42;28.70;;;20.60;99.90;;;;;;10556815;28;20050;-75
2022/08/27 07:10:34;;;;;;;39.00;27.88;;;20.70;99.90;;;;;;10547443;28;20063;-78
2022/08/27 07:15:41;;;;;;;37.00;28.35;;;20.70;99.90;;;;;;10546734;28;20052;-78
2022/08/27 07:20:43;;;;;;;35.25;25.52;;;20.70;99.90;;;;;;10568713;28;20059;-77
2022/08/27 07:25:45;;;;;;;37.05;27.65;;;20.70;99.90;;;;;;10566195;28;20127;-75
2022/08/27 07:30:51;;;;;;;35.97;27.20;;;20.70;99.90;;;;;;10522241;28;20052;-75
2022/08/27 07:35:53;;;;;;;34.38;27.05;;;20.70;99.90;;;;;;10495947;28;20052;-74
2022/08/27 07:40:56;;;;;;;35.75;27.52;;;20.70;99.90;;;;;;10486581;28;20089;-73
2022/08/27 07:46:02;;;;;;;38.42;27.23;;;20.70;99.90;;;;;;10488800;28;20048;-74
2022/08/27 07:51:04;;;;;;;35.00;26.73;;;20.80;99.90;;;;;;10522521;28;20040;-74
2022/08/27 07:56:08;;;;;;;38.13;28.00;;;20.80;99.90;;;;;;10502761;28;20063;-74
2022/08/27 08:01:12;;;;;;;35.90;28.17;;;20.80;99.90;;;;;;10484838;28;20506;-75
2022/08/27 08:06:16;;;;;;;35.53;26.55;;;20.80;99.90;;;;;;10515181;28;20048;-74
2022/08/27 08:11:21;;;;;;;37.97;28.45;;;20.80;99.90;;;;;;10514842;28;20048;-75
2022/08/27 08:16:26;;;;;;;41.72;29.15;;;20.90;99.90;;;;;;10519244;28;20109;-77
2022/08/27 08:21:28;;;;;;;39.28;29.60;;;20.90;99.90;;;;;;10532654;28;20059;-76
2022/08/27 08:26:30;;;;;;;39.17;29.83;;;20.90;99.90;;;;;;10503289;28;20490;-78
2022/08/27 08:31:33;;;;;;;37.83;27.45;;;20.90;99.90;;;;;;10535441;28;20051;-77
2022/08/27 08:36:36;;;;;;;39.08;28.70;;;21.10;99.90;;;;;;10527857;28;20056;-77
2022/08/27 08:41:42;;;;;;;44.92;29.77;;;21.10;99.90;;;;;;10522738;28;20063;-76
2022/08/27 08:46:53;;;;;;;40.15;31.17;;;21.10;99.90;;;;;;10509415;28;20471;-76
2022/08/27 08:52:02;;;;;;;40.35;30.48;;;21.00;99.90;;;;;;10509635;28;20048;-78
2022/08/27 08:57:11;;;;;;;37.63;28.67;;;21.00;99.90;;;;;;10538075;28;20516;-76
2022/08/27 09:02:15;;;;;;;46.25;32.85;;;21.00;99.90;;;;;;10513504;28;20548;-76
2022/08/27 09:07:26;;;;;;;39.60;29.80;;;20.90;99.90;;;;;;10506581;28;20052;-75
2022/08/27 09:12:32;;;;;;;38.95;29.08;;;20.90;99.90;;;;;;10497994;28;20405;-75
2022/08/27 09:17:35;;;;;;;42.13;29.98;;;21.20;99.90;;;;;;10492554;28;20146;-74
2022/08/27 09:22:54;;;;;;;39.25;29.52;;;21.10;99.90;;;;;;10520455;28;20147;-77
2022/08/27 09:29:14;;;;;;;38.47;28.80;;;21.10;99.90;;;;;;10499499;28;20577;-74
2022/08/27 09:33:29;;;;;;;42.83;30.58;;;21.10;99.90;;;;;;10497275;28;20049;-73
2022/08/27 09:38:34;;;;;;;39.58;29.25;;;21.10;99.90;;;;;;10498784;28;20051;-78
2022/08/27 09:43:38;;;;;;;39.67;30.25;;;21.20;99.90;;;;;;10505857;28;20051;-76
2022/08/27 09:48:41;;;;;;;38.83;30.58;;;21.20;99.90;;;;;;10491932;28;20113;-77
2022/08/27 09:53:49;;;;;;;40.00;30.10;;;21.10;99.90;;;;;;10502608;28;20044;-77
2022/08/27 09:58:56;;;;;;;49.05;32.83;;;21.10;99.90;;;;;;10515137;28;20478;-74
2022/08/27 10:04:11;;;;;;;47.83;33.17;;;21.10;99.90;;;;;;10523199;28;20486;-75
2022/08/27 10:09:17;;;;;;;47.42;32.47;;;21.00;99.90;;;;;;10535535;28;20048;-77
2022/08/27 10:14:29;;;;;;;42.72;31.00;;;21.00;99.90;;;;;;10508434;28;20049;-75
2022/08/27 10:19:50;;;;;;;44.08;31.65;;;21.20;99.90;;;;;;10498487;28;20059;-75
2022/08/27 10:25:09;;;;;;;44.72;32.97;;;21.20;99.90;;;;;;10492321;28;20056;-75
2022/08/27 10:30:15;;;;;;;44.65;32.88;;;21.30;99.90;;;;;;10496320;28;20052;-76
2022/08/27 10:35:23;;;;;;;44.10;31.85;;;21.20;99.90;;;;;;10490612;28;20059;-76
2022/08/27 10:40:33;;;;;;;36.70;28.23;;;21.30;99.90;;;;;;10490873;28;20056;-76
2022/08/27 10:45:46;;;;;;;34.28;27.42;;;21.30;99.90;;;;;;10498478;28;20080;-75
2022/08/27 10:50:54;;;;;;;34.92;27.73;;;21.20;99.90;;;;;;10492672;28;20048;-76
2022/08/27 10:56:04;;;;;;;;;;;21.20;99.90;;;;;;10522873;28;20093;-75
2022/08/27 11:01:17;;;;;;;32.03;24.90;;;21.20;99.90;;;;;;10534214;28;19931;-75
2022/08/27 11:06:26;;;;;;;34.42;25.15;;;21.20;99.90;;;;;;10532485;28;20052;-74
2022/08/27 11:11:37;;;;;;;30.38;24.80;;;21.10;99.90;;;;;;10493193;28;20111;-74
2022/08/27 11:16:44;;;;;;;31.75;24.95;;;21.10;99.90;;;;;;10545821;28;20074;-75
2022/08/27 11:22:01;;;;;;;29.70;23.77;;;21.00;99.90;;;;;;10530385;28;20055;-74
2022/08/27 11:27:06;;;;;;;30.17;22.80;;;21.10;99.90;;;;;;10545098;28;20055;-75
2022/08/27 11:32:22;;;;;;;27.75;22.17;;;21.10;99.90;;;;;;10517286;28;20053;-74
2022/08/27 11:37:51;;;;;;;33.05;25.35;;;21.10;99.90;;;;;;10496379;28;20445;-73
2022/08/27 11:42:56;;;;;;;28.95;23.23;;;21.00;99.90;;;;;;10511413;28;20102;-75
2022/08/27 11:48:01;;;;;;;35.03;26.77;;;20.90;99.90;;;;;;10508407;28;20052;-75
2022/08/27 11:53:07;;;;;;;25.10;19.90;;;21.10;99.90;;;;;;10503919;28;20053;-73
2022/08/27 11:58:25;;;;;;;23.85;19.02;;;21.20;99.90;;;;;;10527258;28;20051;-73
2022/08/27 12:03:31;;;;;;;26.48;20.88;;;21.30;99.90;;;;;;10514242;28;20052;-74
2022/08/27 12:08:36;;;;;;;27.45;20.52;;;21.30;99.90;;;;;;10533890;28;20138;-76
2022/08/27 12:13:44;;;;;;;28.88;21.45;;;21.30;99.90;;;;;;10474134;28;20056;-74
2022/08/27 12:19:02;;;;;;;25.08;19.02;;;21.40;99.90;;;;;;10507837;28;20055;-73
2022/08/27 12:24:24;;;;;;;17.95;15.05;;;21.60;99.90;;;;;;10480979;28;20051;-75
2022/08/27 12:29:35;;;;;;;13.45;10.88;;;21.60;99.90;;;;;;10544499;28;20049;-74
2022/08/27 12:34:47;;;;;;;14.15;10.40;;;21.70;99.90;;;;;;10534283;28;20520;-75
2022/08/27 12:39:53;;;;;;;10.75;8.80;;;21.70;99.90;;;;;;10531570;28;20048;-75
2022/08/27 12:44:58;;;;;;;10.60;6.53;;;21.60;99.90;;;;;;10510856;28;20048;-75
2022/08/27 12:50:01;;;;;;;7.50;5.82;;;21.60;99.90;;;;;;10512639;28;20136;-76
2022/08/27 12:55:19;;;;;;;8.82;5.57;;;22.00;99.90;;;;;;10541475;28;20075;-74
2022/08/27 13:00:24;;;;;;;7.20;5.90;;;22.00;99.90;;;;;;10516999;28;20824;-74
2022/08/27 13:05:26;;;;;;;9.60;5.88;;;22.00;99.90;;;;;;10516387;28;20652;-75
2022/08/27 13:10:32;;;;;;;7.88;5.50;;;21.80;99.90;;;;;;10522160;28;20060;-74
2022/08/27 13:15:34;;;;;;;9.27;6.28;;;22.10;99.90;;;;;;10513743;28;20063;-74
2022/08/27 13:20:39;;;;;;;9.35;6.85;;;22.30;99.90;;;;;;10539605;28;20743;-75
2022/08/27 13:25:58;;;;;;;9.77;6.63;;;22.30;99.90;;;;;;10501753;28;20083;-75
2022/08/27 13:31:01;;;;;;;10.30;7.25;;;22.30;99.90;;;;;;10495698;28;20052;-76
2022/08/27 13:36:05;;;;;;;7.70;5.70;;;22.30;99.90;;;;;;10514985;28;20052;-75
2022/08/27 13:41:11;;;;;;;10.27;5.93;;;22.50;99.90;;;;;;10537217;28;20754;-79
2022/08/27 13:46:19;;;;;;;7.88;5.80;;;22.40;99.90;;;;;;10517737;28;20410;-78
2022/08/27 13:51:28;;;;;;;9.43;6.70;;;22.50;99.90;;;;;;10526991;28;20048;-76
2022/08/27 13:56:35;;;;;;;8.18;5.95;;;22.10;99.90;;;;;;10506134;28;20060;-74
2022/08/27 14:01:38;;;;;;;7.15;5.38;;;22.20;99.90;;;;;;10531948;28;20485;-77
2022/08/27 14:06:43;;;;;;;7.00;4.90;;;22.60;99.90;;;;;;10533603;28;20044;-75
2022/08/27 14:11:47;;;;;;;6.53;4.45;;;22.80;99.90;;;;;;10535151;28;20433;-77
2022/08/27 14:16:59;;;;;;;6.53;4.65;;;23.00;99.90;;;;;;10503813;28;20057;-76
2022/08/27 14:22:02;;;;;;;6.63;4.82;;;22.80;99.90;;;;;;10518994;28;20156;-77
2022/08/27 14:27:11;;;;;;;5.82;4.53;;;23.00;99.90;;;;;;10534151;28;20058;-76
2022/08/27 14:32:13;;;;;;;6.13;4.50;;;22.70;99.90;;;;;;10521225;28;20051;-75
2022/08/27 14:37:15;;;;;;;5.88;4.47;;;22.90;99.90;;;;;;10531395;28;20044;-76
2022/08/27 14:42:19;;;;;;;8.20;6.43;;;22.90;99.90;;;;;;10531950;28;20383;-74
2022/08/27 14:47:21;;;;;;;9.52;4.82;;;22.90;99.90;;;;;;10509989;28;20447;-75
2022/08/27 14:52:23;;;;;;;6.80;4.53;;;23.00;99.90;;;;;;10518732;28;20052;-75
2022/08/27 14:57:27;;;;;;;6.35;4.40;;;23.40;99.90;;;;;;10555011;28;20055;-75
2022/08/27 15:02:30;;;;;;;6.32;4.40;;;23.50;99.90;;;;;;10544968;28;20942;-75
2022/08/27 15:07:32;;;;;;;6.85;4.78;;;23.70;99.90;;;;;;10571189;28;20131;-75
2022/08/27 15:12:37;;;;;;;7.43;4.47;;;23.80;99.90;;;;;;10514955;28;20048;-76
2022/08/27 15:17:39;;;;;;;6.18;5.00;;;23.70;99.90;;;;;;10528039;28;20060;-75
2022/08/27 15:22:44;;;;;;;8.15;4.70;;;23.30;99.90;;;;;;10518958;28;20052;-75
2022/08/27 15:27:48;;;;;;;7.32;5.22;;;23.60;99.90;;;;;;10549027;28;20048;-76
2022/08/27 15:32:50;;;;;;;7.88;4.90;;;23.70;99.90;;;;;;10508445;28;20045;-76
2022/08/27 15:37:53;;;;;;;6.68;4.97;;;24.00;99.90;;;;;;10511696;28;20067;-74
2022/08/27 15:43:00;;;;;;;6.93;4.78;;;24.10;99.40;;;;;;10530842;28;20049;-75
2022/08/27 15:48:03;;;;;;;6.73;5.20;;;24.00;99.90;;;;;;10510394;28;20072;-74
2022/08/27 15:53:08;;;;;;;6.97;4.82;;;23.90;99.70;;;;;;10513876;28;20147;-74
2022/08/27 15:58:12;;;;;;;7.07;5.07;;;23.80;99.90;;;;;;10508779;28;20052;-75
2022/08/27 16:03:16;;;;;;;6.57;5.30;;;23.90;99.90;;;;;;10544995;28;20064;-76
2022/08/27 16:08:18;;;;;;;6.82;5.13;;;23.60;99.90;;;;;;10498617;28;20052;-74
2022/08/27 16:13:23;;;;;;;7.38;5.13;;;23.70;99.90;;;;;;10528999;28;20044;-75
2022/08/27 16:18:29;;;;;;;6.88;5.63;;;23.70;99.90;;;;;;10534634;28;20051;-74
2022/08/27 16:23:33;;;;;;;7.22;5.57;;;23.70;99.90;;;;;;10497462;28;20407;-74
2022/08/27 16:28:36;;;;;;;8.43;5.47;;;23.50;99.90;;;;;;10466258;28;20045;-76
2022/08/27 16:33:39;;;;;;;6.88;5.60;;;23.30;99.90;;;;;;10496452;28;20075;-75
2022/08/27 16:38:41;;;;;;;7.68;5.50;;;23.20;99.90;;;;;;10531515;28;20415;-76
2022/08/27 16:43:47;;;;;;;8.00;6.10;;;23.10;99.90;;;;;;10542436;28;20044;-81
2022/08/27 16:54:11;;;;;;;8.90;6.88;;;22.90;99.90;;;;;;10549269;28;20052;-74
2022/08/27 16:59:15;;;;;;;9.82;6.07;;;22.80;99.90;;;;;;10561430;28;20048;-74
2022/08/27 17:04:17;;;;;;;10.43;6.47;;;22.70;99.90;;;;;;10514466;28;20056;-74
2022/08/27 17:09:19;;;;;;;9.38;6.13;;;22.80;99.90;;;;;;10520318;28;20063;-74
2022/08/27 17:14:23;;;;;;;8.13;6.03;;;22.90;99.90;;;;;;10500688;28;20051;-75
2022/08/27 17:19:25;;;;;;;9.15;6.38;;;22.80;99.90;;;;;;10526745;28;20047;-78
2022/08/27 17:24:28;;;;;;;8.98;6.30;;;22.80;99.90;;;;;;10530390;28;20048;-77
2022/08/27 17:29:31;;;;;;;8.65;6.07;;;22.80;99.90;;;;;;10533872;28;20055;-78
2022/08/27 17:34:33;;;;;;;7.95;5.85;;;22.80;99.90;;;;;;10508440;28;20044;-77
2022/08/27 17:39:35;;;;;;;8.07;5.97;;;22.70;99.90;;;;;;10535373;28;20484;-78
2022/08/27 17:44:39;;;;;;;7.75;6.45;;;22.60;99.90;;;;;;10529415;28;20120;-79
2022/08/27 17:49:41;;;;;;;8.73;6.68;;;22.60;99.90;;;;;;10534042;28;20060;-78
2022/08/27 17:54:45;;;;;;;10.35;7.35;;;22.60;99.90;;;;;;10529374;28;20055;-77
2022/08/27 17:59:50;;;;;;;6.97;5.53;;;22.60;99.90;;;;;;10533836;28;20105;-76
2022/08/27 18:04:52;;;;;;;9.70;7.53;;;22.60;99.90;;;;;;10522558;28;20048;-75
2022/08/27 18:09:55;;;;;;;9.55;7.10;;;22.50;99.90;;;;;;10505629;28;20051;-74
2022/08/27 18:15:06;;;;;;;10.93;7.18;;;22.50;99.90;;;;;;10492030;28;20091;-74
2022/08/27 18:20:12;;;;;;;10.05;7.47;;;22.30;99.90;;;;;;10494925;28;20059;-73
2022/08/27 18:25:18;;;;;;;8.70;7.20;;;22.30;99.90;;;;;;10493021;28;20124;-74
2022/08/27 18:30:23;;;;;;;16.75;11.70;;;22.20;99.90;;;;;;10492567;28;20056;-75
2022/08/27 18:35:28;;;;;;;11.63;8.75;;;22.10;99.90;;;;;;10527665;28;20040;-76
2022/08/27 18:40:36;;;;;;;11.95;8.15;;;22.10;99.90;;;;;;10491434;28;20060;-79
2022/08/27 18:45:40;;;;;;;9.05;6.60;;;22.00;99.90;;;;;;10488797;28;20055;-78
2022/08/27 18:50:46;;;;;;;11.40;6.90;;;22.00;99.90;;;;;;10527879;28;20051;-80
2022/08/27 18:55:50;;;;;;;8.60;6.78;;;21.80;99.90;;;;;;10533099;28;20410;-78
2022/08/27 19:00:58;;;;;;;13.20;6.95;;;21.70;99.90;;;;;;10529758;28;20653;-79
2022/08/27 19:06:01;;;;;;;8.10;6.78;;;21.50;99.90;;;;;;10533654;28;20063;-80
2022/08/27 19:11:04;;;;;;;8.80;6.22;;;21.50;99.90;;;;;;10530364;28;20056;-78
2022/08/27 19:16:13;;;;;;;9.85;7.18;;;21.40;99.90;;;;;;10522729;28;20059;-73
2022/08/27 19:21:15;;;;;;;12.68;7.45;;;21.20;99.90;;;;;;10511861;28;20048;-76
2022/08/27 19:26:22;;;;;;;11.25;7.03;;;21.00;99.90;;;;;;10532027;28;20047;-74
2022/08/27 19:31:26;;;;;;;10.88;7.80;;;20.90;99.90;;;;;;10528807;28;20062;-76
2022/08/27 19:36:28;;;;;;;9.77;6.90;;;20.90;99.90;;;;;;10523961;28;20052;-76
2022/08/27 19:41:30;;;;;;;11.23;7.80;;;21.00;99.90;;;;;;10537300;28;20505;-75
2022/08/27 19:46:35;;;;;;;11.85;8.15;;;20.90;99.90;;;;;;10550407;28;20040;-78
2022/08/27 19:51:37;;;;;;;10.55;7.55;;;20.70;99.90;;;;;;10509216;28;20413;-77
2022/08/27 19:56:39;;;;;;;11.15;8.73;;;20.70;99.90;;;;;;10512461;28;20059;-76
2022/08/27 20:01:42;;;;;;;13.13;8.85;;;20.80;99.90;;;;;;10509956;28;20060;-77
2022/08/27 20:06:44;;;;;;;9.73;8.35;;;20.80;99.90;;;;;;10502481;28;20048;-77
2022/08/27 20:11:49;;;;;;;9.88;8.27;;;20.80;99.90;;;;;;10503942;28;20052;-77
2022/08/27 20:16:52;;;;;;;12.52;8.50;;;20.80;99.90;;;;;;10523310;28;20102;-77
2022/08/27 20:21:54;;;;;;;11.48;8.30;;;20.80;99.90;;;;;;10538892;28;20048;-76
2022/08/27 20:26:57;;;;;;;12.93;9.35;;;20.80;99.90;;;;;;10528283;28;20046;-75
2022/08/27 20:32:01;;;;;;;16.02;10.30;;;20.70;99.90;;;;;;10498341;28;20486;-79
2022/08/27 20:37:04;;;;;;;10.93;9.25;;;20.70;99.90;;;;;;10500201;28;20048;-77
2022/08/27 20:42:07;;;;;;;10.35;8.15;;;20.60;99.90;;;;;;10518967;28;20084;-77
2022/08/27 20:47:11;;;;;;;12.88;7.80;;;20.50;99.90;;;;;;10536246;28;20122;-76
2022/08/27 20:52:13;;;;;;;11.20;7.93;;;20.40;99.90;;;;;;10534002;28;20071;-77
2022/08/27 20:57:15;;;;;;;18.70;9.85;;;20.30;99.90;;;;;;10531871;28;20382;-76
2022/08/27 21:02:24;;;;;;;12.43;8.48;;;20.10;99.90;;;;;;10527351;28;20043;-76
2022/08/27 21:07:26;;;;;;;11.70;8.00;;;20.00;99.90;;;;;;10499534;28;20063;-78
2022/08/27 21:12:30;;;;;;;10.82;7.95;;;20.00;99.90;;;;;;10500377;28;20048;-77
2022/08/27 21:17:34;;;;;;;14.20;8.40;;;20.00;99.90;;;;;;10538361;28;20044;-80
2022/08/27 21:22:36;;;;;;;12.10;8.82;;;20.10;99.90;;;;;;10525993;28;20063;-78
2022/08/27 21:27:40;;;;;;;14.60;8.88;;;20.00;99.90;;;;;;10531802;28;20070;-78
2022/08/27 21:32:43;;;;;;;15.07;9.85;;;19.90;99.90;;;;;;10507233;28;20052;-75
2022/08/27 21:37:46;;;;;;;13.63;8.93;;;19.70;99.90;;;;;;10501167;28;20459;-79
2022/08/27 21:42:48;;;;;;;18.67;12.65;;;19.70;99.90;;;;;;10508796;28;20044;-75
2022/08/27 21:47:52;;;;;;;19.77;15.48;;;19.80;99.90;;;;;;10534088;28;20044;-77
2022/08/27 21:52:55;;;;;;;13.55;10.25;;;19.80;99.90;;;;;;10538513;28;20052;-75
2022/08/27 21:57:57;;;;;;;13.35;9.68;;;19.80;99.90;;;;;;10520010;28;20044;-76
2022/08/27 22:03:00;;;;;;;17.48;9.98;;;19.80;99.90;;;;;;10516851;28;20053;-79
2022/08/27 22:08:02;;;;;;;14.20;8.80;;;19.80;99.90;;;;;;10541380;28;20052;-79
2022/08/27 22:13:05;;;;;;;12.50;9.40;;;19.80;99.90;;;;;;10515498;28;20048;-77
2022/08/27 22:18:09;;;;;;;12.88;9.48;;;19.90;99.90;;;;;;10537435;28;20405;-79
2022/08/27 22:23:13;;;;;;;13.40;9.98;;;19.80;99.90;;;;;;10536976;28;20048;-76
2022/08/27 22:28:15;;;;;;;14.18;9.65;;;19.60;99.90;;;;;;10538343;28;20047;-78
2022/08/27 22:33:19;;;;;;;15.95;9.95;;;19.60;99.90;;;;;;10538069;28;20055;-78
2022/08/27 22:38:21;;;;;;;16.58;10.85;;;19.70;99.90;;;;;;10476086;28;20044;-78
2022/08/27 22:43:23;;;;;;;13.70;10.07;;;19.70;99.90;;;;;;10501028;28;20055;-78
2022/08/27 22:48:26;;;;;;;15.88;10.82;;;19.80;99.90;;;;;;10537281;28;20047;-78
2022/08/27 22:53:28;;;;;;;12.43;9.95;;;19.70;99.90;;;;;;10515092;28;20056;-76
2022/08/27 22:58:30;;;;;;;14.65;10.95;;;19.50;99.90;;;;;;10497374;28;20049;-78
2022/08/27 23:03:34;;;;;;;12.98;9.52;;;19.50;99.90;;;;;;10504316;28;20059;-79
2022/08/27 23:08:36;;;;;;;16.80;11.55;;;19.60;99.90;;;;;;10544423;28;20048;-77
2022/08/27 23:13:39;;;;;;;15.80;10.35;;;19.60;99.90;;;;;;10572838;28;20044;-75
2022/08/27 23:18:44;;;;;;;16.15;11.25;;;19.60;99.90;;;;;;10575770;28;20082;-76
2022/08/27 23:23:46;;;;;;;15.02;11.10;;;19.60;99.90;;;;;;10514856;28;20489;-77
2022/08/27 23:28:48;;;;;;;17.75;12.02;;;19.60;99.90;;;;;;10547492;28;20478;-77
2022/08/27 23:33:54;;;;;;;15.52;11.27;;;19.50;99.90;;;;;;10524441;28;20052;-78
2022/08/27 23:38:57;;;;;;;14.60;11.30;;;19.50;99.90;;;;;;10504462;28;20095;-78
2022/08/27 23:43:59;;;;;;;17.67;11.60;;;19.40;99.90;;;;;;10511522;28;20048;-75
2022/08/27 23:49:02;;;;;;;15.52;12.52;;;19.20;99.90;;;;;;10553614;28;20367;-76
2022/08/27 23:54:04;;;;;;;17.33;12.20;;;19.30;99.90;;;;;;10544197;28;20055;-76
2022/08/27 23:59:06;;;;;;;14.43;11.07;;;19.30;99.90;;;;;;10517462;28;20036;-78
